Time;durP1;ratioP1;P1;durP2;ratioP2;P2;SDS_P1;SDS_P2;PMS_P1;PMS_P2;Temp;Humidity;BMP_temperature;BMP_pressure;BME280_temperature;BME280_humidity;BME280_pressure;Samples;Min_cycle;Max_cycle;Signal;HPM_P1;HPM_P2
2021/09/19 00:00:22;;;;;;;2.45;1.38;;;;;;;29.25;27.63;97751.31;5071231;28;20119;-85
2021/09/19 00:02:49;;;;;;;1.52;1.15;;;;;;;29.21;27.65;97745.06;5070063;28;20493;-85
2021/09/19 00:05:16;;;;;;;1.42;1.30;;;;;;;28.36;28.91;97759.44;5071594;28;20051;-84
2021/09/19 00:07:42;;;;;;;1.80;1.55;;;;;;;28.38;29.08;97754.13;5074144;28;20039;-85
2021/09/19 00:10:10;;;;;;;2.42;1.83;;;;;;;27.98;29.64;97752.19;5072798;28;20496;-84
2021/09/19 00:12:38;;;;;;;2.03;1.30;;;;;;;28.67;28.60;97752.41;5072894;28;20488;-85
2021/09/19 00:15:05;;;;;;;1.42;1.33;;;;;;;28.31;29.12;97760.09;5066646;28;20072;-85
2021/09/19 00:17:32;;;;;;;2.15;1.90;;;;;;;27.63;30.06;97755.72;5074035;28;20478;-85
2021/09/19 00:19:58;;;;;;;4.68;2.38;;;;;;;25.74;32.87;97756.75;5071605;28;20048;-85
2021/09/19 00:22:24;;;;;;;2.67;2.20;;;;;;;26.80;31.41;97761.41;5066293;28;20496;-85
2021/09/19 00:24:52;;;;;;;2.97;2.72;;;;;;;26.16;32.15;97760.94;5072058;28;20044;-85
2021/09/19 00:27:19;;;;;;;3.95;2.50;;;;;;;25.68;33.19;97764.16;5069204;28;20403;-85
2021/09/19 00:29:45;;;;;;;3.40;3.03;;;;;;;25.21;34.29;97776.09;5072668;28;20073;-85
2021/09/19 00:32:11;;;;;;;4.03;2.67;;;;;;;25.35;33.80;97772.84;5070948;28;20036;-85
2021/09/19 00:34:37;;;;;;;3.33;2.55;;;;;;;25.96;32.88;97769.63;5072695;28;20033;-85
2021/09/19 00:37:03;;;;;;;2.50;2.30;;;;;;;25.99;32.56;97760.28;5073398;28;20035;-84
2021/09/19 00:39:29;;;;;;;2.92;2.63;;;;;;;26.10;32.25;97771.19;5070641;28;20476;-85
2021/09/19 00:41:55;;;;;;;2.55;2.10;;;;;;;26.84;31.39;97771.31;5071412;28;20492;-85
2021/09/19 00:44:26;;;;;;;2.00;1.80;;;;;;;26.88;31.01;97769.16;5070627;28;20498;-85
2021/09/19 00:46:54;;;;;;;3.30;2.38;;;;;;;25.42;33.53;97775.41;5071536;28;20553;-84
2021/09/19 00:49:20;;;;;;;2.08;1.98;;;;;;;26.43;31.93;97775.22;5073163;28;20449;-84
2021/09/19 00:51:47;;;;;;;2.15;1.95;;;;;;;25.40;33.01;97777.91;5071123;28;20032;-84
2021/09/19 00:54:15;;;;;;;2.70;2.10;;;;;;;24.97;33.69;97779.69;5071976;28;20104;-84
2021/09/19 00:56:41;;;;;;;2.47;2.00;;;;;;;25.11;33.69;97784.88;5072262;28;20029;-85
2021/09/19 00:59:09;;;;;;;3.15;2.83;;;;;;;23.98;35.55;97786.03;5059249;28;20119;-84
2021/09/19 01:01:35;;;;;;;2.95;2.58;;;;;;;24.69;34.26;97792.50;5071383;28;20025;-84
2021/09/19 01:04:02;;;;;;;3.17;2.88;;;;;;;24.94;33.76;97784.16;5063853;28;20032;-84
2021/09/19 01:06:29;;;;;;;4.90;3.67;;;;;;;22.70;37.62;97792.22;5050824;28;20036;-84
2021/09/19 01:08:55;;;;;;;3.88;3.47;;;;;;;22.73;38.24;97793.38;5061093;28;20036;-84
2021/09/19 01:11:21;;;;;;;5.32;4.32;;;;;;;23.63;36.21;97795.31;5048888;28;20044;-84
2021/09/19 01:13:49;;;;;;;3.88;3.42;;;;;;;24.45;34.57;97789.19;5053103;28;20051;-84
2021/09/19 01:16:18;;;;;;;4.70;3.90;;;;;;;24.45;34.38;97791.19;5052966;28;20093;-85
2021/09/19 01:18:46;;;;;;;3.95;3.58;;;;;;;24.30;34.40;97802.00;5065940;28;20123;-84
2021/09/19 01:21:14;;;;;;;4.70;3.70;;;;;;;24.40;34.19;97789.72;5062448;28;20036;-84
2021/09/19 01:23:56;;;;;;;4.28;3.85;;;;;;;24.73;33.65;97781.97;5062198;28;20803;-84
2021/09/19 01:26:23;;;;;;;3.47;3.17;;;;;;;25.70;31.85;97781.38;5068324;28;20372;-85
2021/09/19 01:28:49;;;;;;;5.50;4.30;;;;;;;26.04;31.02;97782.19;5070700;28;20056;-85
2021/09/19 01:31:15;;;;;;;4.57;3.92;;;;;;;25.71;31.21;97786.56;5068513;28;20068;-85
2021/09/19 01:33:41;;;;;;;6.20;4.00;;;;;;;26.26;30.74;97796.34;5069157;28;20499;-85
2021/09/19 01:36:14;;;;;;;7.00;5.10;;;;;;;24.66;32.99;97784.97;5071136;28;20315;-85
2021/09/19 01:38:41;;;;;;;6.13;3.60;;;;;;;25.88;31.57;97793.59;5070450;28;20029;-85
2021/09/19 01:41:07;;;;;;;6.80;4.70;;;;;;;24.31;33.53;97800.00;5069246;28;20032;-85
2021/09/19 01:43:33;;;;;;;9.70;5.15;;;;;;;24.61;33.33;97793.94;5070149;28;20081;-85
2021/09/19 01:46:04;;;;;;;5.90;5.13;;;;;;;24.82;32.55;97796.16;5069884;28;20087;-85
2021/09/19 01:48:37;;;;;;;7.22;5.55;;;;;;;25.27;32.23;97799.59;5070832;28;20476;-85
2021/09/19 01:51:05;;;;;;;8.00;5.82;;;;;;;24.18;34.05;97799.94;5069361;28;20044;-85
2021/09/19 01:53:32;;;;;;;8.63;6.55;;;;;;;24.07;34.17;97807.06;5067626;28;20501;-85
2021/09/19 01:55:58;;;;;;;7.80;6.00;;;;;;;23.26;35.60;97807.00;5070407;28;20454;-85
2021/09/19 01:58:25;;;;;;;9.10;6.47;;;;;;;24.10;34.06;97806.19;5069302;28;20025;-84
2021/09/19 02:00:56;;;;;;;7.40;6.10;;;;;;;23.86;34.07;97805.56;5066178;28;20039;-84
2021/09/19 02:03:22;;;;;;;7.32;6.55;;;;;;;23.32;34.76;97817.25;5066327;28;20032;-84
2021/09/19 02:05:48;;;;;;;8.30;6.22;;;;;;;23.17;35.26;97830.00;5070318;28;20127;-84
2021/09/19 02:08:14;;;;;;;8.90;6.22;;;;;;;23.19;34.86;97829.56;5069996;28;20396;-84
2021/09/19 02:10:40;;;;;;;8.10;6.05;;;;;;;23.44;34.76;97817.81;5069451;28;20420;-85
2021/09/19 02:13:06;;;;;;;7.57;6.28;;;;;;;24.37;33.05;97815.06;5069147;28;20032;-85
2021/09/19 02:15:33;;;;;;;9.07;5.90;;;;;;;23.86;33.55;97811.97;5069501;28;20032;-85
2021/09/19 02:17:59;;;;;;;9.20;7.15;;;;;;;22.12;37.04;97815.34;5070729;28;20052;-85
2021/09/19 02:20:25;;;;;;;10.68;7.00;;;;;;;21.65;37.44;97818.09;5066388;28;20381;-86
2021/09/19 02:22:51;;;;;;;10.73;7.13;;;;;;;21.58;37.74;97828.59;5063968;28;20170;-85
2021/09/19 02:25:17;;;;;;;9.60;7.45;;;;;;;22.98;35.22;97816.81;5068273;28;20036;-85
2021/09/19 02:27:44;;;;;;;10.60;7.47;;;;;;;23.65;33.95;97820.91;5069760;28;20028;-85
2021/09/19 02:30:13;;;;;;;9.90;6.55;;;;;;;23.68;34.00;97822.03;5070305;28;20423;-85
2021/09/19 02:32:39;;;;;;;10.68;7.15;;;;;;;24.29;32.78;97819.31;5069025;28;20051;-84
2021/09/19 02:35:07;;;;;;;8.13;6.05;;;;;;;24.35;32.53;97811.91;5070707;28;20040;-85
2021/09/19 02:37:34;;;;;;;8.68;6.57;;;;;;;24.11;33.01;97816.94;5069247;28;20471;-85
2021/09/19 02:40:00;;;;;;;14.40;7.13;;;;;;;25.38;30.98;97813.31;5069912;28;20028;-85
2021/09/19 02:42:26;;;;;;;11.18;7.07;;;;;;;25.34;31.07;97810.59;5068765;28;20025;-85
2021/09/19 02:44:52;;;;;;;10.45;6.97;;;;;;;25.38;30.81;97810.50;5075182;28;20098;-85
2021/09/19 02:47:18;;;;;;;11.27;7.22;;;;;;;25.54;30.66;97818.06;5075002;28;20078;-84
2021/09/19 02:49:45;;;;;;;10.32;6.78;;;;;;;25.10;31.14;97809.34;5074056;28;20127;-85
2021/09/19 02:52:11;;;;;;;9.98;6.43;;;;;;;24.84;31.87;97818.16;5074208;28;20033;-85
2021/09/19 02:54:37;;;;;;;10.90;7.63;;;;;;;24.46;32.40;97815.22;5072990;28;20028;-85
2021/09/19 02:57:03;;;;;;;9.95;6.65;;;;;;;24.81;31.75;97813.47;5074280;28;20028;-85
2021/09/19 02:59:29;;;;;;;8.68;6.15;;;;;;;24.12;32.90;97817.75;5072665;28;20044;-84
2021/09/19 03:01:55;;;;;;;10.68;6.95;;;;;;;24.01;33.08;97818.00;5073282;28;20025;-85
2021/09/19 03:04:21;;;;;;;9.43;6.72;;;;;;;23.52;34.03;97808.03;5073506;28;20076;-84
2021/09/19 03:06:47;;;;;;;8.00;6.00;;;;;;;24.64;32.48;97813.47;5073432;28;20056;-85
2021/09/19 03:09:13;;;;;;;8.30;6.38;;;;;;;24.00;33.13;97830.44;5074304;28;20043;-84
2021/09/19 03:11:39;;;;;;;14.30;8.10;;;;;;;23.40;34.17;97822.72;5074733;28;20112;-85
2021/09/19 03:14:05;;;;;;;9.35;6.85;;;;;;;22.98;35.09;97832.81;5072058;28;20052;-84
2021/09/19 03:16:31;;;;;;;8.20;6.90;;;;;;;22.78;35.04;97818.84;5080080;28;20025;-85
2021/09/19 03:18:58;;;;;;;11.68;6.80;;;;;;;23.79;33.21;97822.56;5074365;28;20033;-84
2021/09/19 03:21:24;;;;;;;8.98;7.15;;;;;;;23.57;33.38;97818.72;5073746;28;20478;-84
2021/09/19 03:23:50;;;;;;;8.13;5.68;;;;;;;21.98;35.98;97827.56;5073129;28;20785;-86
2021/09/19 03:26:16;;;;;;;9.10;6.32;;;;;;;22.29;35.53;97826.19;5072078;28;20020;-84
2021/09/19 03:28:42;;;;;;;7.50;5.82;;;;;;;21.60;36.92;97824.16;5074326;28;20041;-85
2021/09/19 03:31:08;;;;;;;8.23;6.60;;;;;;;21.46;36.97;97821.59;5071377;28;20032;-85
2021/09/19 03:33:34;;;;;;;8.02;6.07;;;;;;;21.99;35.38;97827.13;5070038;28;20041;-84
2021/09/19 03:36:00;;;;;;;8.63;7.20;;;;;;;22.11;35.28;97836.91;5072768;28;20048;-85
2021/09/19 03:38:26;;;;;;;8.43;6.05;;;;;;;23.71;32.31;97835.97;5073755;28;20063;-85
2021/09/19 03:40:52;;;;;;;7.53;5.90;;;;;;;23.91;32.32;97849.91;5071068;28;20040;-85
2021/09/19 03:43:18;;;;;;;8.43;6.40;;;;;;;24.21;31.19;97845.94;5073843;28;20032;-85
2021/09/19 03:45:44;;;;;;;7.72;5.80;;;;;;;24.50;30.58;97853.19;5072336;28;20036;-84
2021/09/19 03:48:10;;;;;;;5.93;5.03;;;;;;;24.23;30.86;97854.72;5074558;28;20133;-84
2021/09/19 03:50:37;;;;;;;6.68;4.85;;;;;;;24.04;31.04;97854.34;5072733;28;20031;-85
2021/09/19 03:53:03;;;;;;;9.77;5.63;;;;;;;23.89;31.12;97853.16;5069594;28;20419;-84
2021/09/19 03:55:29;;;;;;;8.05;4.57;;;;;;;23.63;31.44;97848.59;5071971;28;20041;-85
2021/09/19 03:57:55;;;;;;;5.95;4.38;;;;;;;23.47;31.61;97856.97;5073041;28;20109;-84
2021/09/19 04:00:21;;;;;;;6.25;3.85;;;;;;;24.29;30.39;97848.16;5072140;28;20438;-85
2021/09/19 04:02:47;;;;;;;5.97;4.40;;;;;;;23.92;30.66;97860.66;5072815;28;20419;-85
2021/09/19 04:05:15;;;;;;;4.90;4.38;;;;;;;23.71;31.19;97852.00;5072590;28;20029;-85
2021/09/19 04:07:41;;;;;;;6.15;4.47;;;;;;;23.75;31.09;97845.09;5074415;28;20033;-84
2021/09/19 04:10:09;;;;;;;6.57;4.22;;;;;;;24.17;30.44;97860.09;5075703;28;20060;-85
2021/09/19 04:12:36;;;;;;;4.57;3.90;;;;;;;24.36;30.04;97864.00;5070959;28;20429;-85
2021/09/19 04:15:03;;;;;;;7.70;4.18;;;;;;;23.70;30.65;97858.84;5069570;28;20089;-84
2021/09/19 04:17:29;;;;;;;6.47;3.80;;;;;;;24.34;29.80;97863.66;5072145;28;20040;-84
2021/09/19 04:19:55;;;;;;;5.20;3.95;;;;;;;24.46;29.68;97860.09;5061023;28;20106;-85
2021/09/19 04:22:23;;;;;;;5.05;3.95;;;;;;;25.02;28.64;97861.34;5072083;28;20056;-85
2021/09/19 04:24:50;;;;;;;3.33;3.00;;;;;;;25.53;27.98;97870.72;5072213;28;20040;-86
2021/09/19 04:27:16;;;;;;;5.10;3.55;;;;;;;25.07;28.53;97866.44;5072851;28;20029;-85
2021/09/19 04:29:42;;;;;;;5.53;4.40;;;;;;;24.07;29.66;97868.75;5071456;28;20431;-85
2021/09/19 04:32:09;;;;;;;4.30;3.35;;;;;;;24.95;28.81;97866.41;5071727;28;20590;-85
2021/09/19 04:34:35;;;;;;;4.70;3.45;;;;;;;25.33;27.74;97870.06;5071844;28;20040;-85
2021/09/19 04:37:01;;;;;;;4.38;2.90;;;;;;;25.08;28.09;97870.81;5068623;28;20040;-84
2021/09/19 04:39:27;;;;;;;4.68;3.40;;;;;;;24.22;29.33;97882.00;5072056;28;20067;-84
2021/09/19 04:41:53;;;;;;;5.15;4.22;;;;;;;24.23;29.85;97891.19;5070215;28;20047;-85
2021/09/19 04:44:19;;;;;;;4.88;3.72;;;;;;;23.77;30.13;97881.09;5071241;28;20029;-84
2021/09/19 04:46:45;;;;;;;5.53;4.35;;;;;;;23.68;30.41;97884.50;5072357;28;20048;-84
2021/09/19 04:49:12;;;;;;;6.47;3.65;;;;;;;24.25;29.43;97880.34;5072224;28;20437;-84
2021/09/19 04:51:38;;;;;;;6.05;3.65;;;;;;;24.73;28.53;97885.84;5072297;28;20388;-84
2021/09/19 04:54:04;;;;;;;5.72;3.95;;;;;;;24.64;28.50;97891.31;5071690;28;20052;-84
2021/09/19 04:56:30;;;;;;;4.43;4.03;;;;;;;24.68;28.75;97900.44;5072142;28;20071;-84
2021/09/19 04:58:56;;;;;;;3.97;3.58;;;;;;;24.91;28.50;97903.03;5070644;28;20041;-84
2021/09/19 05:01:22;;;;;;;5.68;3.63;;;;;;;24.16;29.60;97902.59;5070225;28;20098;-85
2021/09/19 05:03:48;;;;;;;5.07;4.38;;;;;;;24.26;29.22;97902.34;5079309;28;20626;-84
2021/09/19 05:06:14;;;;;;;7.60;5.03;;;;;;;24.40;28.82;97898.38;5071815;28;20590;-84
2021/09/19 05:08:40;;;;;;;6.65;3.80;;;;;;;24.58;28.87;97907.09;5072977;28;20040;-84
2021/09/19 05:11:06;;;;;;;4.45;3.63;;;;;;;24.37;29.25;97911.25;5071956;28;20044;-84
2021/09/19 05:13:32;;;;;;;5.18;3.63;;;;;;;24.48;28.95;97905.38;5072350;28;20028;-84
2021/09/19 05:15:58;;;;;;;4.45;4.05;;;;;;;23.57;30.34;97906.34;5071320;28;20048;-84
2021/09/19 05:18:24;;;;;;;5.13;3.88;;;;;;;24.03;29.93;97911.69;5071799;28;20051;-84
2021/09/19 05:20:51;;;;;;;8.75;4.68;;;;;;;23.63;30.22;97904.63;5071785;28;20032;-84
2021/09/19 05:23:17;;;;;;;5.35;4.22;;;;;;;24.54;29.12;97909.22;5071264;28;20094;-84
2021/09/19 05:25:43;;;;;;;7.32;4.35;;;;;;;24.04;30.05;97907.66;5070273;28;20090;-84
2021/09/19 05:28:09;;;;;;;5.63;4.55;;;;;;;23.86;30.35;97920.53;5070694;28;20040;-83
2021/09/19 05:30:35;;;;;;;6.75;4.65;;;;;;;24.31;29.51;97920.66;5069973;28;20041;-87
2021/09/19 05:33:01;;;;;;;5.10;4.53;;;;;;;23.28;31.03;97916.59;5070502;28;20519;-85
2021/09/19 05:35:27;;;;;;;8.43;4.97;;;;;;;23.56;30.83;97921.63;5072059;28;20032;-85
2021/09/19 05:37:53;;;;;;;6.25;4.35;;;;;;;23.64;30.74;97927.84;5071894;28;20471;-85
2021/09/19 05:40:19;;;;;;;6.60;5.03;;;;;;;23.92;30.13;97922.38;5070528;28;20506;-85
2021/09/19 05:42:46;;;;;;;6.00;4.47;;;;;;;24.07;29.85;97928.47;5070496;28;21924;-86
2021/09/19 05:45:12;;;;;;;5.35;3.97;;;;;;;24.03;29.85;97933.34;5070099;28;20031;-86
2021/09/19 05:47:38;;;;;;;5.95;4.95;;;;;;;24.66;29.13;97931.75;5070289;28;20503;-86
2021/09/19 05:50:05;;;;;;;5.22;4.60;;;;;;;24.41;29.32;97933.63;5070980;28;20504;-86
2021/09/19 05:52:31;;;;;;;6.53;4.55;;;;;;;24.40;29.47;97927.22;5073861;28;20144;-86
2021/09/19 05:54:58;;;;;;;5.65;3.88;;;;;;;24.76;28.97;97938.34;5071672;28;20036;-86
2021/09/19 05:57:24;;;;;;;5.40;3.72;;;;;;;24.82;28.88;97932.97;5067607;28;20032;-87
2021/09/19 05:59:50;;;;;;;4.35;3.28;;;;;;;25.82;27.48;97927.63;5078769;28;20024;-87
2021/09/19 06:02:16;;;;;;;4.32;3.45;;;;;;;25.55;27.57;97929.28;5070814;28;20464;-88
2021/09/19 06:04:42;;;;;;;4.18;3.13;;;;;;;24.81;28.95;97934.97;5070943;28;20043;-86
2021/09/19 06:07:08;;;;;;;7.93;5.68;;;;;;;23.60;30.54;97941.13;5069098;28;20384;-85
2021/09/19 06:09:34;;;;;;;4.80;3.20;;;;;;;24.32;30.02;97937.03;5071206;28;20060;-85
2021/09/19 06:12:00;;;;;;;4.47;3.50;;;;;;;24.50;29.27;97945.81;5070827;28;20056;-85
2021/09/19 06:14:26;;;;;;;4.55;3.08;;;;;;;23.59;30.54;97948.78;5071687;28;20037;-86
2021/09/19 06:16:52;;;;;;;4.63;3.38;;;;;;;24.43;29.62;97945.22;5071588;28;20048;-87
2021/09/19 06:19:18;;;;;;;4.88;3.42;;;;;;;24.83;28.96;97946.59;5071767;28;20032;-87
2021/09/19 06:21:44;;;;;;;4.85;4.15;;;;;;;24.49;29.07;97954.66;5071278;28;20826;-87
2021/09/19 06:24:10;;;;;;;3.78;3.30;;;;;;;24.00;29.84;97956.66;5069884;28;20029;-83
2021/09/19 06:26:36;;;;;;;5.78;3.60;;;;;;;24.53;29.28;97949.75;5071330;28;20051;-83
2021/09/19 06:29:03;;;;;;;4.63;3.80;;;;;;;24.99;28.56;97949.34;5070595;28;20076;-83
2021/09/19 06:31:29;;;;;;;4.90;3.00;;;;;;;25.08;28.12;97957.91;5069552;28;20088;-86
2021/09/19 06:33:55;;;;;;;8.68;3.78;;;;;;;24.27;29.25;97957.22;5071198;28;20055;-85
2021/09/19 06:36:21;;;;;;;3.45;2.95;;;;;;;23.81;30.45;97963.88;5072070;28;20033;-84
2021/09/19 06:38:47;;;;;;;4.55;2.83;;;;;;;24.51;29.34;97964.22;5072508;28;20036;-85
2021/09/19 06:41:13;;;;;;;4.10;3.28;;;;;;;24.95;28.68;97971.09;5070554;28;20032;-84
2021/09/19 06:43:39;;;;;;;4.20;3.55;;;;;;;24.56;28.96;97971.31;5068850;28;20029;-84
2021/09/19 06:46:05;;;;;;;6.68;3.63;;;;;;;24.29;29.33;97968.00;5070139;28;20037;-85
2021/09/19 06:48:31;;;;;;;8.90;3.78;;;;;;;24.57;29.11;97961.69;5067641;28;20036;-85
2021/09/19 06:50:57;;;;;;;6.15;3.30;;;;;;;24.88;28.77;97970.53;5067864;28;20055;-86
2021/09/19 06:53:23;;;;;;;6.07;2.85;;;;;;;25.27;28.27;97971.03;5069295;28;20071;-86
2021/09/19 06:55:49;;;;;;;4.20;3.20;;;;;;;25.35;28.08;97969.59;5070615;28;20024;-85
2021/09/19 06:58:15;;;;;;;4.30;3.45;;;;;;;24.50;28.94;97968.28;5066390;28;20030;-86
2021/09/19 07:00:42;;;;;;;4.68;3.38;;;;;;;24.25;29.50;97970.13;5065972;28;20092;-87
2021/09/19 07:03:08;;;;;;;3.75;2.83;;;;;;;24.48;29.21;97969.94;5069081;28;20037;-85
2021/09/19 07:05:34;;;;;;;2.88;2.58;;;;;;;24.97;28.75;97968.63;5070532;28;20035;-85
2021/09/19 07:08:00;;;;;;;2.85;2.60;;;;;;;25.13;28.40;97971.44;5069959;28;20032;-87
2021/09/19 07:10:26;;;;;;;3.22;2.92;;;;;;;25.17;28.14;97966.50;5070286;28;20025;-85
2021/09/19 07:12:52;;;;;;;2.92;2.63;;;;;;;25.31;28.18;97966.09;5069429;28;20123;-86
2021/09/19 07:15:18;;;;;;;3.55;2.53;;;;;;;25.23;28.12;97969.53;5068211;28;20063;-85
2021/09/19 07:17:44;;;;;;;4.07;3.25;;;;;;;24.38;29.37;97977.41;5068926;28;20033;-85
2021/09/19 07:20:11;;;;;;;6.20;3.17;;;;;;;24.54;29.12;97980.19;5069795;28;22769;-85
2021/09/19 07:22:40;;;;;;;4.50;2.97;;;;;;;24.70;28.92;97974.56;5068958;28;20060;-86
2021/09/19 07:25:10;;;;;;;4.40;2.88;;;;;;;25.44;28.09;97968.94;5063696;28;20396;-85
2021/09/19 07:27:36;;;;;;;6.95;4.30;;;;;;;25.15;28.38;97973.78;5074679;28;20093;-86
2021/09/19 07:30:03;;;;;;;4.97;3.80;;;;;;;24.07;30.01;97983.75;5068709;28;20032;-85
2021/09/19 07:32:32;;;;;;;4.13;3.15;;;;;;;23.56;30.72;97974.88;5064132;28;20036;-85
2021/09/19 07:34:58;;;;;;;6.63;4.60;;;;;;;24.09;29.90;97979.28;5072818;28;20503;-85
2021/09/19 07:37:25;;;;;;;5.13;3.70;;;;;;;24.64;29.21;97984.72;5072335;28;21013;-85
2021/09/19 07:39:51;;;;;;;6.65;3.80;;;;;;;24.81;28.77;97976.34;5070116;28;20033;-85
2021/09/19 07:42:18;;;;;;;4.97;3.40;;;;;;;25.04;28.83;97987.34;5067029;28;20033;-84
2021/09/19 07:44:44;;;;;;;6.03;3.70;;;;;;;25.34;28.36;97984.84;5075187;28;20506;-84
2021/09/19 07:47:14;;;;;;;5.88;4.13;;;;;;;25.18;28.20;97987.72;5071828;28;20063;-86
2021/09/19 07:49:40;;;;;;;5.35;3.88;;;;;;;25.17;28.40;97983.34;5069203;28;20045;-85
2021/09/19 07:52:07;;;;;;;4.10;3.63;;;;;;;25.98;27.46;97975.34;5069721;28;20044;-86
2021/09/19 07:54:34;;;;;;;4.68;4.20;;;;;;;25.84;27.58;97977.78;5068946;28;20472;-85
2021/09/19 07:57:00;;;;;;;8.80;4.18;;;;;;;25.62;28.03;97968.44;5069863;28;20028;-85
2021/09/19 07:59:26;;;;;;;5.75;4.45;;;;;;;25.65;27.65;97973.19;5068446;28;20112;-85
2021/09/19 08:01:52;;;;;;;4.93;3.78;;;;;;;26.27;27.66;97974.47;5087129;28;20522;-86
2021/09/19 08:04:18;;;;;;;4.55;3.40;;;;;;;26.93;26.79;97977.06;5070656;28;20036;-86
2021/09/19 08:06:45;;;;;;;8.00;5.38;;;;;;;26.54;26.96;97977.56;5068367;28;20032;-86
2021/09/19 08:09:11;;;;;;;4.68;3.85;;;;;;;26.65;26.55;97984.41;5068053;28;20033;-88
2021/09/19 08:11:37;;;;;;;3.28;2.70;;;;;;;26.89;26.12;97982.03;5068071;28;20058;-87
2021/09/19 08:14:06;;;;;;;3.65;2.97;;;;;;;26.30;27.45;97987.66;5070331;28;20041;-86
2021/09/19 08:16:42;;;;;;;3.45;2.88;;;;;;;26.57;26.86;97988.72;5072454;28;20040;-87
2021/09/19 08:19:08;;;;;;;3.55;2.53;;;;;;;26.82;26.66;97985.09;5068481;28;20029;-87
2021/09/19 08:21:36;;;;;;;3.03;2.22;;;;;;;26.98;26.93;97982.09;5071862;28;20111;-86
2021/09/19 08:24:07;;;;;;;4.32;2.45;;;;;;;27.48;25.96;97983.16;5071776;28;20036;-85
2021/09/19 08:26:34;;;;;;;3.30;2.25;;;;;;;26.69;26.52;97978.69;5072377;28;20035;-85
2021/09/19 08:29:00;;;;;;;2.90;2.45;;;;;;;26.68;26.51;97979.91;5072339;28;20412;-85
2021/09/19 08:31:26;;;;;;;2.70;2.47;;;;;;;26.81;26.22;97980.72;5071874;28;20503;-85
2021/09/19 08:33:52;;;;;;;3.63;2.47;;;;;;;26.82;26.34;97978.66;5072694;28;20099;-86
2021/09/19 08:36:19;;;;;;;5.07;2.30;;;;;;;26.69;26.36;97985.09;5073750;28;20412;-86
2021/09/19 08:38:46;;;;;;;3.08;2.20;;;;;;;26.70;26.09;97981.03;5073301;28;20032;-86
2021/09/19 08:41:15;;;;;;;3.58;2.08;;;;;;;27.22;26.27;97985.28;5073105;28;20434;-86
2021/09/19 08:43:42;;;;;;;2.92;2.35;;;;;;;26.43;26.89;97985.59;5072726;28;20025;-85
2021/09/19 08:46:10;;;;;;;2.88;2.05;;;;;;;26.48;27.48;97985.03;5071823;28;20087;-85
2021/09/19 08:48:39;;;;;;;3.45;2.08;;;;;;;26.96;26.98;97990.22;5072735;28;20033;-84
2021/09/19 08:51:05;;;;;;;3.25;2.95;;;;;;;27.35;25.86;97986.03;5072422;28;20036;-84
2021/09/19 08:53:31;;;;;;;2.42;2.05;;;;;;;27.52;25.93;97987.41;5071668;28;20525;-83
2021/09/19 08:56:01;;;;;;;3.05;2.00;;;;;;;27.60;26.17;97985.91;5071219;28;20507;-84
2021/09/19 08:58:27;;;;;;;5.32;2.92;;;;;;;27.32;26.00;97989.75;5072033;28;20029;-85
2021/09/19 09:00:53;;;;;;;5.07;2.28;;;;;;;27.66;25.72;97988.91;5069176;28;20113;-86
2021/09/19 09:03:23;;;;;;;4.15;2.08;;;;;;;27.80;25.04;97982.72;5059171;28;20044;-84
2021/09/19 09:06:03;;;;;;;2.70;1.95;;;;;;;27.63;25.18;97984.22;5070011;28;20503;-86
2021/09/19 09:08:31;;;;;;;3.60;2.75;;;;;;;26.68;26.34;97983.53;5072010;28;20103;-84
2021/09/19 09:10:59;;;;;;;3.63;2.17;;;;;;;27.01;26.65;97994.50;5069963;28;20496;-84
2021/09/19 09:13:31;;;;;;;2.78;2.17;;;;;;;27.38;26.05;97991.56;5071335;28;20029;-86
2021/09/19 09:16:12;;;;;;;3.28;2.55;;;;;;;27.19;25.79;97989.03;5103731;28;20488;-84
2021/09/19 09:18:55;;;;;;;2.40;2.17;;;;;;;27.83;25.74;97993.91;5070910;28;20028;-83
2021/09/19 09:21:30;;;;;;;4.55;2.38;;;;;;;27.49;25.84;97991.19;5070535;28;20446;-85
2021/09/19 09:23:59;;;;;;;2.33;1.98;;;;;;;27.58;25.68;97996.88;5066835;28;20053;-84
2021/09/19 09:26:31;;;;;;;2.22;2.03;;;;;;;27.25;26.32;97990.03;5070742;28;20427;-87
2021/09/19 09:29:15;;;;;;;2.50;2.08;;;;;;;26.75;26.56;97988.16;5064141;28;20552;-84
2021/09/19 09:31:52;;;;;;;2.55;1.90;;;;;;;26.78;26.46;97986.47;5068978;28;20020;-84
2021/09/19 09:34:19;;;;;;;2.35;1.85;;;;;;;26.88;26.25;97988.94;5083633;28;20036;-87
2021/09/19 09:37:00;;;;;;;3.17;2.20;;;;;;;26.67;27.00;97996.03;5069560;28;20111;-85
2021/09/19 09:39:35;;;;;;;2.50;2.03;;;;;;;26.59;27.03;97991.88;5063353;28;20385;-85
2021/09/19 09:42:07;;;;;;;1.70;1.55;;;;;;;27.06;26.35;97994.72;5069681;28;20029;-82
2021/09/19 09:44:53;;;;;;;2.67;1.90;;;;;;;26.60;26.45;97993.47;5070915;28;20055;-86
2021/09/19 09:47:25;;;;;;;2.00;1.75;;;;;;;26.57;26.34;97990.75;5069178;28;20035;-87
2021/09/19 09:49:53;;;;;;;4.95;1.88;;;;;;;26.22;26.60;97994.72;5070141;28;20437;-85
2021/09/19 09:52:25;;;;;;;2.08;1.85;;;;;;;26.28;27.03;97993.72;5069875;28;20052;-85
2021/09/19 09:54:54;;;;;;;2.28;1.83;;;;;;;26.56;26.60;97998.41;5069853;28;20047;-84
2021/09/19 09:57:35;;;;;;;2.22;1.60;;;;;;;27.18;26.17;97999.53;5072347;28;20028;-85
2021/09/19 10:00:01;;;;;;;;;;;;;;;27.16;25.81;98004.84;5064675;28;20041;-86
2021/09/19 10:02:28;;;;;;;2.03;1.50;;;;;;;27.61;25.97;97998.75;5070741;28;19923;-85
2021/09/19 10:04:56;;;;;;;1.95;1.52;;;;;;;28.09;25.13;98000.19;5068973;28;20025;-85
2021/09/19 10:07:22;;;;;;;1.52;1.25;;;;;;;28.15;24.93;98003.94;5069601;28;20028;-85
2021/09/19 10:09:49;;;;;;;3.88;1.67;;;;;;;28.33;24.95;98003.25;5071713;28;20029;-85
2021/09/19 10:12:20;;;;;;;2.15;1.55;;;;;;;27.71;24.88;98005.25;5069985;28;20037;-85
2021/09/19 10:14:47;;;;;;;;;;;;;;;27.88;24.51;98004.59;5086265;28;20056;-85
2021/09/19 10:17:13;;;;;;;2.72;1.60;;;;;;;27.44;25.38;98003.03;5067614;28;19917;-85
2021/09/19 10:19:42;;;;;;;2.55;1.30;;;;;;;27.39;25.72;98012.09;5068128;28;20044;-85
2021/09/19 10:22:10;;;;;;;1.80;1.70;;;;;;;27.43;25.63;98007.09;5069054;28;20591;-84
2021/09/19 10:24:37;;;;;;;1.60;1.33;;;;;;;27.80;25.38;98017.38;5068115;28;20524;-85
2021/09/19 10:27:22;;;;;;;3.63;2.00;;;;;;;27.77;25.21;98009.84;5069339;28;20028;-85
2021/09/19 10:29:56;;;;;;;1.70;1.40;;;;;;;27.50;25.42;98008.88;5069095;28;20040;-84
2021/09/19 10:32:40;;;;;;;2.50;1.50;;;;;;;27.68;25.24;98004.13;5067354;28;20029;-85
2021/09/19 10:35:18;;;;;;;2.55;1.63;;;;;;;27.43;25.32;98012.75;5070484;28;20040;-84
2021/09/19 10:37:52;;;;;;;1.85;1.60;;;;;;;27.14;26.05;98004.47;5070855;28;20033;-85
2021/09/19 10:40:36;;;;;;;1.90;1.67;;;;;;;27.22;25.26;98003.00;5067058;28;20539;-84
2021/09/19 10:43:22;;;;;;;1.60;1.33;;;;;;;27.93;24.82;98000.38;5070734;28;20046;-85
2021/09/19 10:45:53;;;;;;;1.88;1.70;;;;;;;27.86;24.40;98012.72;5081002;28;20583;-85
2021/09/19 10:48:32;;;;;;;1.52;1.40;;;;;;;27.77;25.07;98007.00;5084980;28;20051;-84
2021/09/19 10:51:08;;;;;;;1.50;1.40;;;;;;;27.90;24.46;98016.19;5068887;28;20081;-83
2021/09/19 10:53:48;;;;;;;2.03;1.40;;;;;;;27.78;25.07;98019.09;5074348;28;20048;-84
2021/09/19 10:56:17;;;;;;;2.40;1.58;;;;;;;27.29;25.57;98018.88;5071856;28;20040;-84
2021/09/19 10:58:47;;;;;;;2.53;2.10;;;;;;;26.95;25.63;98022.50;5059102;28;20032;-85
2021/09/19 11:01:18;;;;;;;4.70;2.33;;;;;;;25.82;27.44;98025.28;5070527;28;20033;-84
2021/09/19 11:03:47;;;;;;;4.32;2.08;;;;;;;26.06;27.00;98020.94;5068368;28;20032;-85
2021/09/19 11:06:29;;;;;;;2.28;2.03;;;;;;;26.75;26.76;98019.13;5065088;28;20032;-86
2021/09/19 11:08:56;;;;;;;2.58;2.20;;;;;;;26.57;26.99;98024.56;5068468;28;20222;-85
2021/09/19 11:11:25;;;;;;;2.67;1.95;;;;;;;26.46;27.16;98021.31;5066864;28;20039;-85
2021/09/19 11:13:55;;;;;;;2.28;2.00;;;;;;;27.37;26.47;98026.66;5063106;28;20098;-86
2021/09/19 11:16:30;;;;;;;2.45;1.75;;;;;;;27.16;26.47;98018.13;5068773;28;20072;-85
2021/09/19 11:19:05;;;;;;;2.60;2.33;;;;;;;27.26;25.99;98022.59;5065059;28;20028;-85
2021/09/19 11:21:38;;;;;;;2.50;2.22;;;;;;;27.39;25.61;98023.38;5059198;28;20037;-84
2021/09/19 11:24:12;;;;;;;6.63;2.60;;;;;;;27.47;25.67;98024.66;5070331;28;20135;-87
2021/09/19 11:26:42;;;;;;;3.97;2.50;;;;;;;27.34;26.14;98027.53;5065580;28;20024;-85
2021/09/19 11:29:24;;;;;;;4.43;2.13;;;;;;;27.66;25.82;98020.75;5073332;28;20032;-84
2021/09/19 11:31:51;;;;;;;4.03;2.75;;;;;;;27.58;25.59;98021.47;5069532;28;20039;-85
2021/09/19 11:34:20;;;;;;;2.75;2.55;;;;;;;28.05;25.33;98019.28;5067536;28;20393;-83
2021/09/19 11:36:53;;;;;;;3.15;2.65;;;;;;;27.95;25.79;98018.44;5065515;28;20048;-86